Time;durP1;ratioP1;P1;durP2;ratioP2;P2;SDS_P1;SDS_P2;PMS_P1;PMS_P2;Temp;Humidity;BMP_temperature;BMP_pressure;BME280_temperature;BME280_humidity;BME280_pressure;Samples;Min_cycle;Max_cycle;Signal;HPM_P1;HPM_P2
2021/04/10 00:00:46;;;;;;;8.38;4.90;;;8.20;99.90;;;;;;5044842;28;20122;-72
2021/04/10 00:03:12;;;;;;;8.80;5.45;;;8.10;99.90;;;;;;5046169;28;20087;-72
2021/04/10 00:05:38;;;;;;;9.13;4.80;;;8.20;99.90;;;;;;5045174;28;20098;-71
2021/04/10 00:08:04;;;;;;;6.03;4.90;;;8.20;99.90;;;;;;5024892;28;20053;-71
2021/04/10 00:10:31;;;;;;;7.40;4.50;;;8.20;99.90;;;;;;5035057;28;20063;-71
2021/04/10 00:12:58;;;;;;;8.32;5.03;;;8.20;99.90;;;;;;5039588;28;20060;-73
2021/04/10 00:15:24;;;;;;;7.13;4.97;;;8.30;99.90;;;;;;5047063;28;20024;-72
2021/04/10 00:17:50;;;;;;;7.38;4.43;;;8.30;99.90;;;;;;5041139;28;20021;-72
2021/04/10 00:20:20;;;;;;;7.57;4.70;;;8.30;99.90;;;;;;5046368;28;20025;-73
2021/04/10 00:22:47;;;;;;;4.78;4.20;;;8.40;99.90;;;;;;5025020;28;20059;-73
2021/04/10 00:25:13;;;;;;;6.43;4.38;;;8.50;99.90;;;;;;5025407;28;20021;-73
2021/04/10 00:27:39;;;;;;;6.20;4.63;;;8.60;99.90;;;;;;5043049;28;20025;-73
2021/04/10 00:30:06;;;;;;;5.00;4.50;;;8.60;99.90;;;;;;5018354;28;20025;-73
2021/04/10 00:32:32;;;;;;;9.73;4.70;;;8.60;99.90;;;;;;5033369;28;20032;-73
2021/04/10 00:34:57;;;;;;;7.45;5.13;;;8.70;99.90;;;;;;5026338;28;20025;-73
2021/04/10 00:37:23;;;;;;;6.40;4.72;;;8.70;99.90;;;;;;5043136;28;20082;-72
2021/04/10 00:39:48;;;;;;;8.05;5.18;;;8.70;99.90;;;;;;5026541;28;20483;-73
2021/04/10 00:42:14;;;;;;;6.97;4.60;;;8.80;99.90;;;;;;5023635;28;20025;-73
2021/04/10 00:44:40;;;;;;;6.70;4.63;;;8.80;99.90;;;;;;5047066;28;20089;-73
2021/04/10 00:47:05;;;;;;;7.50;4.63;;;8.80;99.90;;;;;;5030972;28;20025;-73
2021/04/10 00:49:31;;;;;;;6.28;4.68;;;8.70;99.90;;;;;;5029445;28;20024;-73
2021/04/10 00:51:57;;;;;;;5.75;4.10;;;8.70;99.90;;;;;;5019399;28;20107;-72
2021/04/10 00:54:23;;;;;;;5.97;4.40;;;8.70;99.90;;;;;;5047587;28;20037;-73
2021/04/10 00:56:48;;;;;;;6.78;4.72;;;8.70;99.90;;;;;;5039862;28;20040;-71
2021/04/10 00:59:14;;;;;;;8.65;4.72;;;8.80;99.90;;;;;;5051694;28;20106;-72
2021/04/10 01:01:40;;;;;;;5.75;4.38;;;8.80;99.90;;;;;;5025666;28;20548;-73
2021/04/10 01:04:06;;;;;;;9.13;4.65;;;8.70;99.90;;;;;;5043510;28;20013;-72
2021/04/10 01:06:32;;;;;;;6.88;4.60;;;8.80;99.90;;;;;;5043774;28;20036;-73
2021/04/10 01:08:57;;;;;;;5.80;4.60;;;8.80;99.90;;;;;;5036569;28;20334;-73
2021/04/10 01:11:41;;;;;;;7.03;4.85;;;8.80;99.90;;;;;;5042533;28;20506;-73
2021/04/10 01:14:31;;;;;;;8.32;5.05;;;8.90;99.90;;;;;;5035190;28;20024;-74
2021/04/10 01:17:11;;;;;;;7.15;4.70;;;8.80;99.90;;;;;;5025745;28;20099;-73
2021/04/10 01:20:03;;;;;;;6.40;4.80;;;8.80;99.90;;;;;;5033914;28;20029;-73
2021/04/10 01:23:03;;;;;;;7.05;4.70;;;8.80;99.90;;;;;;5021503;28;20071;-71
2021/04/10 01:25:46;;;;;;;6.68;4.88;;;8.80;99.90;;;;;;5043770;28;20010;-72
2021/04/10 01:28:48;;;;;;;8.13;4.68;;;8.80;99.90;;;;;;5045904;28;20018;-72
2021/04/10 01:31:16;;;;;;;5.72;4.55;;;8.80;99.90;;;;;;5027880;28;20029;-72
2021/04/10 01:33:52;;;;;;;8.15;5.00;;;8.70;99.90;;;;;;5021852;28;20171;-72
2021/04/10 01:36:23;;;;;;;6.10;4.63;;;8.70;99.90;;;;;;5046696;28;20024;-72
2021/04/10 01:38:50;;;;;;;9.75;4.90;;;8.70;99.90;;;;;;5039805;28;20069;-73
2021/04/10 01:41:18;;;;;;;8.23;4.82;;;8.70;99.90;;;;;;5045358;28;20104;-72
2021/04/10 01:43:45;;;;;;;6.93;4.80;;;8.70;99.90;;;;;;5043705;28;20013;-72
2021/04/10 01:46:11;;;;;;;7.63;4.80;;;8.70;99.90;;;;;;5042513;28;20044;-72
2021/04/10 01:48:41;;;;;;;5.30;4.68;;;8.80;99.90;;;;;;5042853;28;20013;-73
2021/04/10 01:51:07;;;;;;;6.07;4.93;;;8.80;99.90;;;;;;5043214;28;20013;-72
2021/04/10 01:53:34;;;;;;;5.55;4.30;;;8.80;99.90;;;;;;5031532;28;20029;-72
2021/04/10 01:56:02;;;;;;;9.88;5.20;;;8.80;99.90;;;;;;5031754;28;20040;-72
2021/04/10 01:58:28;;;;;;;5.22;4.60;;;8.70;99.90;;;;;;5031437;28;20108;-71
2021/04/10 02:00:56;;;;;;;5.25;4.38;;;8.70;99.90;;;;;;5031451;28;20022;-72
2021/04/10 02:03:21;;;;;;;6.72;4.70;;;8.70;99.90;;;;;;5018238;28;20113;-71
2021/04/10 02:05:48;;;;;;;6.55;4.80;;;8.60;99.90;;;;;;5031435;28;20105;-71
2021/04/10 02:08:16;;;;;;;8.02;4.43;;;8.60;99.90;;;;;;5004537;28;20021;-71
2021/04/10 02:10:43;;;;;;;6.85;4.45;;;8.70;99.90;;;;;;5035187;28;20025;-71
2021/04/10 02:13:09;;;;;;;8.25;4.55;;;8.70;99.90;;;;;;5035134;28;20036;-72
2021/04/10 02:15:34;;;;;;;6.68;4.72;;;8.70;99.90;;;;;;5034960;28;20025;-72
2021/04/10 02:18:00;;;;;;;6.07;4.55;;;8.70;99.90;;;;;;5035099;28;20033;-72
2021/04/10 02:20:26;;;;;;;6.20;4.30;;;8.70;99.90;;;;;;5035081;28;20475;-71
2021/04/10 02:22:56;;;;;;;6.53;4.75;;;8.80;99.90;;;;;;5034827;28;20026;-72
2021/04/10 02:25:24;;;;;;;7.38;4.82;;;8.80;99.90;;;;;;5017027;28;20030;-72
2021/04/10 02:27:50;;;;;;;6.85;4.13;;;8.70;99.90;;;;;;5034883;28;20075;-72
2021/04/10 02:30:17;;;;;;;7.10;4.78;;;8.70;99.90;;;;;;5017217;28;20021;-73
2021/04/10 02:33:16;;;;;;;6.15;4.53;;;8.70;99.90;;;;;;5034769;28;20487;-72
2021/04/10 02:35:51;;;;;;;6.32;4.60;;;8.70;99.90;;;;;;5034638;28;20037;-71
2021/04/10 02:38:19;;;;;;;6.23;4.53;;;8.60;99.90;;;;;;5034978;28;20022;-71
2021/04/10 02:40:48;;;;;;;7.25;4.75;;;8.60;99.90;;;;;;5021782;28;20037;-72
2021/04/10 02:43:20;;;;;;;6.72;4.20;;;8.70;99.90;;;;;;5034575;28;20079;-73
2021/04/10 02:45:48;;;;;;;4.88;4.15;;;8.70;99.90;;;;;;5034637;28;20013;-72
2021/04/10 02:48:21;;;;;;;6.63;4.32;;;8.60;99.90;;;;;;5034638;28;20026;-73
2021/04/10 02:50:50;;;;;;;6.53;4.28;;;8.60;99.90;;;;;;5034554;28;20103;-72
2021/04/10 02:53:16;;;;;;;6.13;4.40;;;8.60;99.90;;;;;;5034363;28;20049;-72
2021/04/10 02:55:46;;;;;;;8.02;4.07;;;8.60;99.90;;;;;;5034376;28;20025;-72
2021/04/10 02:58:13;;;;;;;5.22;4.00;;;8.60;99.90;;;;;;5017000;28;20025;-71
2021/04/10 03:00:41;;;;;;;6.18;4.47;;;8.60;99.90;;;;;;5019026;28;20033;-73
2021/04/10 03:03:10;;;;;;;7.43;4.65;;;8.60;99.90;;;;;;5018915;28;20025;-72
2021/04/10 03:05:38;;;;;;;7.68;4.03;;;8.60;99.90;;;;;;5018391;28;20028;-72
2021/04/10 03:08:06;;;;;;;5.32;4.45;;;8.60;99.90;;;;;;5017810;28;20052;-71
2021/04/10 03:10:32;;;;;;;10.23;4.07;;;8.60;99.90;;;;;;5034194;28;20028;-72
2021/04/10 03:12:58;;;;;;;6.97;4.07;;;8.60;99.90;;;;;;5033998;28;20021;-72
2021/04/10 03:15:23;;;;;;;10.70;4.60;;;8.60;99.90;;;;;;5033949;28;20029;-72
2021/04/10 03:17:49;;;;;;;11.10;4.07;;;8.50;99.90;;;;;;5033119;28;20079;-75
2021/04/10 03:20:16;;;;;;;7.32;4.88;;;8.30;99.90;;;;;;5034240;28;20034;-72
2021/04/10 03:22:46;;;;;;;7.85;4.40;;;8.10;99.90;;;;;;5033777;28;20167;-73
2021/04/10 03:25:13;;;;;;;7.65;4.75;;;8.10;99.90;;;;;;5033675;28;20022;-71
2021/04/10 03:27:41;;;;;;;6.18;4.63;;;8.10;99.90;;;;;;5033812;28;20036;-70
2021/04/10 03:30:08;;;;;;;8.05;5.03;;;8.10;99.90;;;;;;5033789;28;20024;-70
2021/04/10 03:32:33;;;;;;;6.60;4.65;;;8.10;99.90;;;;;;5033699;28;20036;-72
2021/04/10 03:35:00;;;;;;;5.28;4.30;;;8.10;99.90;;;;;;5033525;28;20029;-71
2021/04/10 03:37:29;;;;;;;6.85;4.10;;;8.00;99.90;;;;;;5033815;28;20045;-71
2021/04/10 03:39:55;;;;;;;5.95;4.90;;;8.00;99.90;;;;;;5034196;28;20025;-71
2021/04/10 03:42:34;;;;;;;7.18;4.85;;;8.00;99.90;;;;;;5034059;28;20104;-71
2021/04/10 03:45:00;;;;;;;7.00;4.65;;;8.00;99.90;;;;;;5033210;28;20480;-72
2021/04/10 03:47:25;;;;;;;7.78;4.40;;;8.00;99.90;;;;;;5033427;28;20045;-72
2021/04/10 03:49:51;;;;;;;7.70;4.70;;;7.90;99.90;;;;;;5015722;28;20021;-71
2021/04/10 03:52:16;;;;;;;7.95;5.00;;;7.90;99.90;;;;;;5033324;28;20499;-72
2021/04/10 03:54:42;;;;;;;8.63;4.85;;;7.70;99.90;;;;;;5032880;28;20506;-73
2021/04/10 03:57:07;;;;;;;7.93;4.13;;;7.70;99.90;;;;;;5033404;28;20511;-71
2021/04/10 03:59:33;;;;;;;6.55;4.43;;;7.70;99.90;;;;;;5033145;28;20036;-70
2021/04/10 04:01:58;;;;;;;8.85;5.38;;;7.80;99.90;;;;;;5032868;28;20076;-70
2021/04/10 04:04:24;;;;;;;5.68;4.30;;;7.80;99.90;;;;;;5032861;28;20132;-72
2021/04/10 04:06:49;;;;;;;7.57;4.25;;;7.80;99.90;;;;;;5033132;28;20525;-70
2021/04/10 04:09:15;;;;;;;7.47;5.07;;;7.80;99.90;;;;;;5032921;28;20104;-70
2021/04/10 04:11:40;;;;;;;6.38;4.97;;;7.70;99.90;;;;;;5033006;28;20059;-70
2021/04/10 04:14:06;;;;;;;7.22;5.40;;;7.70;99.90;;;;;;5032539;28;20029;-70
2021/04/10 04:16:31;;;;;;;10.00;5.15;;;7.60;99.90;;;;;;5015144;28;20268;-71
2021/04/10 04:18:57;;;;;;;7.50;4.70;;;7.60;99.90;;;;;;5032745;28;20037;-70
2021/04/10 04:21:22;;;;;;;7.28;4.68;;;7.70;99.90;;;;;;5032713;28;20025;-71
2021/04/10 04:23:48;;;;;;;7.00;4.60;;;7.70;99.90;;;;;;5032436;28;20560;-70
2021/04/10 04:26:13;;;;;;;9.52;6.72;;;7.70;99.90;;;;;;5033008;28;20541;-70
2021/04/10 04:28:39;;;;;;;11.88;7.90;;;7.70;99.90;;;;;;5032556;28;20021;-70
2021/04/10 04:31:04;;;;;;;10.05;6.68;;;7.70;99.90;;;;;;5032481;28;20479;-71
2021/04/10 04:33:30;;;;;;;8.27;6.13;;;7.60;99.90;;;;;;5014531;28;20033;-72
2021/04/10 04:35:55;;;;;;;9.98;5.80;;;7.60;99.90;;;;;;5032601;28;20030;-72
2021/04/10 04:38:21;;;;;;;8.48;5.97;;;7.60;99.90;;;;;;5032333;28;20567;-70
2021/04/10 04:40:47;;;;;;;7.35;5.43;;;7.60;99.90;;;;;;5032444;28;20040;-71
2021/04/10 04:43:12;;;;;;;8.65;6.13;;;7.50;99.90;;;;;;5032917;28;20039;-69
2021/04/10 04:45:37;;;;;;;7.00;5.05;;;7.60;99.90;;;;;;5044449;28;20029;-72
2021/04/10 04:48:03;;;;;;;9.27;5.28;;;7.70;99.90;;;;;;5014550;28;20013;-70
2021/04/10 04:50:29;;;;;;;6.70;5.70;;;7.60;99.90;;;;;;5032290;28;20037;-70
2021/04/10 04:52:54;;;;;;;8.15;5.57;;;7.60;99.90;;;;;;5032076;28;20067;-71
2021/04/10 04:55:20;;;;;;;7.57;5.20;;;7.60;99.90;;;;;;5014089;28;20033;-72
2021/04/10 04:57:45;;;;;;;7.55;5.85;;;7.60;99.90;;;;;;5032172;28;20029;-72
2021/04/10 05:00:11;;;;;;;7.22;5.30;;;7.60;99.90;;;;;;5031990;28;20108;-72
2021/04/10 05:02:37;;;;;;;9.43;5.93;;;7.60;99.90;;;;;;5031924;28;20021;-70
2021/04/10 05:05:03;;;;;;;7.00;5.45;;;7.70;99.90;;;;;;5031876;28;20026;-70
2021/04/10 05:07:29;;;;;;;7.55;5.57;;;7.70;99.90;;;;;;5031960;28;20032;-70
2021/04/10 05:09:54;;;;;;;11.60;6.80;;;7.70;99.90;;;;;;5032007;28;20034;-70
2021/04/10 05:12:20;;;;;;;7.43;5.57;;;7.70;99.90;;;;;;5031812;28;20080;-69
2021/04/10 05:14:45;;;;;;;8.85;5.95;;;7.70;99.90;;;;;;5031665;28;20109;-70
2021/04/10 05:17:11;;;;;;;7.50;5.13;;;7.60;99.90;;;;;;5031860;28;20479;-70
2021/04/10 05:19:36;;;;;;;9.50;5.50;;;7.80;99.90;;;;;;5014161;28;20037;-70
2021/04/10 05:22:02;;;;;;;8.48;5.45;;;7.90;99.90;;;;;;5014020;28;20414;-72
2021/04/10 05:24:27;;;;;;;8.60;5.57;;;7.90;99.90;;;;;;5031563;28;20032;-70
2021/04/10 05:26:53;;;;;;;8.00;4.95;;;7.90;99.90;;;;;;5031887;28;20027;-69
2021/04/10 05:29:18;;;;;;;8.90;6.35;;;7.90;99.90;;;;;;5031620;28;20538;-70
2021/04/10 05:31:44;;;;;;;9.80;5.93;;;7.90;99.90;;;;;;5031800;28;20041;-70
2021/04/10 05:34:09;;;;;;;9.35;6.70;;;7.90;99.90;;;;;;5031477;28;20025;-72
2021/04/10 05:36:35;;;;;;;9.07;5.57;;;7.90;99.90;;;;;;5031622;28;20036;-72
2021/04/10 05:39:00;;;;;;;8.60;6.32;;;7.90;99.90;;;;;;5031632;28;20030;-70
2021/04/10 05:41:27;;;;;;;8.90;6.25;;;7.90;99.90;;;;;;5032455;28;20036;-70
2021/04/10 05:43:53;;;;;;;8.55;5.70;;;7.90;99.90;;;;;;5041850;28;20009;-72
2021/04/10 05:46:18;;;;;;;7.25;5.05;;;7.90;99.90;;;;;;5042963;28;20057;-70
2021/04/10 05:48:44;;;;;;;8.88;5.72;;;7.90;99.90;;;;;;5035745;28;20017;-72
2021/04/10 05:51:09;;;;;;;8.50;6.03;;;7.80;99.90;;;;;;5035473;28;20029;-72
2021/04/10 05:53:38;;;;;;;7.65;5.57;;;7.70;99.90;;;;;;5017347;28;20033;-70
2021/04/10 05:56:03;;;;;;;8.23;5.70;;;7.80;99.90;;;;;;5017577;28;20056;-69
2021/04/10 05:58:29;;;;;;;9.50;6.05;;;7.70;99.90;;;;;;5035352;28;20061;-70
2021/04/10 06:00:54;;;;;;;7.93;5.38;;;7.80;99.90;;;;;;5035518;28;20108;-70
2021/04/10 06:03:20;;;;;;;8.98;5.28;;;7.70;99.90;;;;;;5035136;28;20037;-70
2021/04/10 06:05:47;;;;;;;6.63;5.55;;;7.80;99.90;;;;;;5017499;28;20031;-70
2021/04/10 06:08:13;;;;;;;9.18;6.35;;;7.90;99.90;;;;;;5017395;28;20112;-69
2021/04/10 06:10:39;;;;;;;8.88;5.90;;;7.80;99.90;;;;;;5035212;28;20057;-69
2021/04/10 06:13:04;;;;;;;7.93;5.90;;;7.80;99.90;;;;;;5035078;28;20079;-69
2021/04/10 06:15:30;;;;;;;9.75;5.50;;;7.70;99.90;;;;;;5034887;28;20045;-70
2021/04/10 06:17:55;;;;;;;9.30;6.38;;;7.90;99.90;;;;;;5034905;28;20064;-70
2021/04/10 06:20:21;;;;;;;8.43;6.20;;;7.90;99.90;;;;;;5033495;28;20064;-69
2021/04/10 06:22:47;;;;;;;7.60;5.82;;;8.00;99.90;;;;;;5034833;28;20086;-69
2021/04/10 06:25:13;;;;;;;13.07;7.95;;;8.00;99.90;;;;;;5017237;28;20060;-69
2021/04/10 06:27:39;;;;;;;11.57;6.95;;;7.90;99.90;;;;;;5034937;28;20060;-69
2021/04/10 06:30:07;;;;;;;15.15;9.95;;;8.00;99.90;;;;;;5034372;28;20052;-70
2021/04/10 06:32:32;;;;;;;13.90;9.10;;;8.00;99.90;;;;;;5034302;28;20040;-69
2021/04/10 06:34:58;;;;;;;13.65;8.48;;;8.00;99.90;;;;;;5034447;28;20029;-69
2021/04/10 06:37:23;;;;;;;27.38;18.20;;;8.00;99.90;;;;;;5034503;28;20033;-69
2021/04/10 06:39:49;;;;;;;12.40;9.45;;;8.10;99.90;;;;;;5034601;28;20021;-70
2021/04/10 06:42:15;;;;;;;18.65;10.77;;;8.10;99.90;;;;;;5034251;28;20404;-69
2021/04/10 06:44:40;;;;;;;7.55;5.97;;;8.10;99.90;;;;;;5047220;28;20475;-69
2021/04/10 06:47:07;;;;;;;11.93;7.75;;;8.10;99.90;;;;;;5035302;28;20030;-69
2021/04/10 06:49:32;;;;;;;12.45;8.50;;;8.10;99.90;;;;;;5016862;28;20386;-71
2021/04/10 06:51:59;;;;;;;10.70;6.60;;;8.10;99.90;;;;;;5016360;28;20076;-71
2021/04/10 06:54:34;;;;;;;10.32;6.88;;;8.10;99.90;;;;;;5034005;28;20517;-71
2021/04/10 06:57:10;;;;;;;8.02;5.88;;;8.20;99.90;;;;;;5016566;28;20071;-71
2021/04/10 07:00:00;;;;;;;9.48;5.45;;;8.10;99.90;;;;;;5034217;28;20025;-71
2021/04/10 07:02:27;;;;;;;9.65;5.88;;;8.20;99.90;;;;;;5034133;28;20029;-69
2021/04/10 07:04:56;;;;;;;7.78;6.25;;;8.20;99.90;;;;;;5033959;28;20563;-72
2021/04/10 07:07:23;;;;;;;9.55;6.55;;;8.20;99.90;;;;;;5034009;28;20021;-69
2021/04/10 07:09:49;;;;;;;7.65;5.50;;;8.20;99.90;;;;;;5034059;28;20027;-70
2021/04/10 07:12:15;;;;;;;12.90;6.70;;;8.30;99.90;;;;;;5033944;28;20402;-70
2021/04/10 07:14:40;;;;;;;9.88;6.25;;;8.40;99.90;;;;;;5033706;28;20029;-69
2021/04/10 07:17:06;;;;;;;8.15;5.38;;;8.40;99.90;;;;;;5034045;28;20033;-69
2021/04/10 07:19:31;;;;;;;6.13;5.45;;;8.50;99.90;;;;;;5033819;28;20030;-70
2021/04/10 07:22:08;;;;;;;7.03;5.00;;;8.60;99.90;;;;;;5015847;28;20021;-69
2021/04/10 07:24:36;;;;;;;;;;;8.60;99.90;;;;;;5034055;28;20100;-69
2021/04/10 07:27:01;;;;;;;7.90;5.30;;;8.70;99.90;;;;;;5033694;28;19905;-69
2021/04/10 07:29:32;;;;;;;7.40;5.25;;;8.70;99.90;;;;;;5033216;28;20048;-70
2021/04/10 07:31:59;;;;;;;9.00;5.60;;;8.70;99.90;;;;;;5033612;28;20021;-70
2021/04/10 07:34:52;;;;;;;7.32;5.50;;;8.70;99.90;;;;;;5033137;28;20100;-70
2021/04/10 07:37:38;;;;;;;5.93;5.20;;;8.90;99.90;;;;;;5014961;28;20048;-70
2021/04/10 07:40:09;;;;;;;9.05;5.72;;;8.80;99.90;;;;;;5015736;28;20432;-70
2021/04/10 07:42:46;;;;;;;8.15;5.80;;;8.80;99.90;;;;;;5033246;28;20104;-70
2021/04/10 07:45:23;;;;;;;10.27;5.85;;;8.80;99.90;;;;;;5046570;28;20041;-70
2021/04/10 07:47:49;;;;;;;8.55;5.80;;;8.90;99.90;;;;;;5033333;28;20053;-70
2021/04/10 07:50:18;;;;;;;11.10;5.88;;;8.90;99.90;;;;;;5015595;28;20029;-69
2021/04/10 07:52:44;;;;;;;10.00;6.70;;;9.00;99.90;;;;;;5033001;28;20116;-69
2021/04/10 07:55:34;;;;;;;7.47;5.35;;;9.00;99.90;;;;;;5032767;28;20116;-69
2021/04/10 07:58:19;;;;;;;10.20;6.03;;;9.20;99.90;;;;;;5033284;28;20083;-69
2021/04/10 08:00:44;;;;;;;8.43;5.43;;;9.20;99.90;;;;;;5033169;28;20025;-70
2021/04/10 08:03:31;;;;;;;9.13;5.28;;;9.30;99.90;;;;;;5033014;28;20033;-70
2021/04/10 08:06:05;;;;;;;;;;;9.50;99.90;;;;;;5033013;28;20026;-70
2021/04/10 08:08:33;;;;;;;7.32;5.22;;;9.60;99.90;;;;;;5033025;28;19948;-70
2021/04/10 08:11:05;;;;;;;7.72;5.03;;;9.70;99.90;;;;;;5032902;28;20014;-69
2021/04/10 08:13:31;;;;;;;7.45;4.68;;;9.70;99.90;;;;;;5014882;28;20063;-69
2021/04/10 08:16:17;;;;;;;6.63;4.32;;;9.80;99.90;;;;;;5014893;28;20108;-70
2021/04/10 08:18:54;;;;;;;6.60;4.05;;;10.00;99.90;;;;;;5032815;28;20527;-69
2021/04/10 08:21:32;;;;;;;6.32;3.88;;;10.20;99.90;;;;;;5020576;28;20084;-70
2021/04/10 08:24:19;;;;;;;6.32;4.25;;;10.30;99.90;;;;;;5032399;28;20047;-70
2021/04/10 08:26:44;;;;;;;;;;;10.30;99.90;;;;;;5018778;28;20137;-70
2021/04/10 08:29:10;;;;;;;7.57;3.80;;;10.40;99.90;;;;;;5032477;28;19952;-70
2021/04/10 08:31:35;;;;;;;7.72;4.00;;;10.40;99.90;;;;;;5031702;28;20021;-70
2021/04/10 08:34:01;;;;;;;6.35;3.70;;;10.50;99.90;;;;;;5031008;28;20021;-70
2021/04/10 08:36:27;;;;;;;7.68;4.05;;;10.50;99.90;;;;;;5031148;28;20479;-69
2021/04/10 08:38:52;;;;;;;7.93;3.85;;;10.50;99.90;;;;;;5031321;28;20031;-69
2021/04/10 08:41:19;;;;;;;5.78;3.20;;;10.60;99.90;;;;;;5014714;28;20024;-70
2021/04/10 08:43:49;;;;;;;6.32;3.83;;;10.50;99.90;;;;;;5037210;28;20017;-69
2021/04/10 08:46:19;;;;;;;5.63;4.10;;;10.50;99.90;;;;;;5039719;28;20079;-69
2021/04/10 08:48:48;;;;;;;6.40;3.60;;;10.50;99.90;;;;;;5031996;28;20036;-70
2021/04/10 08:51:15;;;;;;;8.35;3.67;;;10.50;99.90;;;;;;5032223;28;20118;-69
2021/04/10 08:53:48;;;;;;;5.75;3.63;;;10.50;99.90;;;;;;5031672;28;20475;-69
2021/04/10 08:56:18;;;;;;;4.30;3.55;;;10.60;99.90;;;;;;5032045;28;20028;-69
2021/04/10 08:58:44;;;;;;;7.13;3.60;;;10.60;99.90;;;;;;5032088;28;20029;-70
2021/04/10 09:01:20;;;;;;;6.80;3.15;;;10.60;99.90;;;;;;5014276;28;20029;-69
2021/04/10 09:03:45;;;;;;;6.10;3.80;;;10.50;99.90;;;;;;5031681;28;20545;-69
2021/04/10 09:06:11;;;;;;;5.18;3.45;;;10.50;99.90;;;;;;5014203;28;20025;-69
2021/04/10 09:08:37;;;;;;;6.82;3.20;;;10.50;99.90;;;;;;5014249;28;20021;-70
2021/04/10 09:11:07;;;;;;;9.40;4.40;;;10.60;99.90;;;;;;5031564;28;20037;-70
2021/04/10 09:13:40;;;;;;;5.57;3.75;;;10.70;99.90;;;;;;5031324;28;20026;-69
2021/04/10 09:16:28;;;;;;;8.20;3.92;;;10.60;99.90;;;;;;5031210;28;20041;-69
2021/04/10 09:19:00;;;;;;;8.15;3.60;;;10.60;99.90;;;;;;5030920;28;20032;-69
2021/04/10 09:21:45;;;;;;;5.50;3.42;;;10.70;99.90;;;;;;5031183;28;20116;-69
2021/04/10 09:24:36;;;;;;;7.00;3.70;;;10.70;99.90;;;;;;5031622;28;20021;-70
2021/04/10 09:27:23;;;;;;;7.75;3.10;;;10.80;99.90;;;;;;5026785;28;20407;-71
2021/04/10 09:30:05;;;;;;;8.70;2.97;;;10.90;99.90;;;;;;5031741;28;20028;-70
2021/04/10 09:32:44;;;;;;;5.95;3.10;;;11.00;99.90;;;;;;5013888;28;20120;-70
2021/04/10 09:35:15;;;;;;;4.63;2.88;;;11.10;99.90;;;;;;5013660;28;20463;-70
2021/04/10 09:37:40;;;;;;;3.42;2.70;;;11.20;99.90;;;;;;5031563;28;20117;-70
2021/04/10 09:40:18;;;;;;;4.32;2.70;;;11.30;99.90;;;;;;5031622;28;20104;-70
2021/04/10 09:42:46;;;;;;;5.18;3.30;;;11.40;99.90;;;;;;5031519;28;20174;-70
2021/04/10 09:45:13;;;;;;;5.13;3.03;;;11.50;99.90;;;;;;5026780;28;20498;-70
2021/04/10 09:48:02;;;;;;;5.60;3.20;;;11.40;99.90;;;;;;5031488;28;20112;-71
2021/04/10 09:50:35;;;;;;;4.97;3.20;;;11.40;99.90;;;;;;5018833;28;20021;-71
2021/04/10 09:53:12;;;;;;;5.07;3.10;;;11.40;99.90;;;;;;5013652;28;20025;-70
2021/04/10 09:55:46;;;;;;;5.13;3.15;;;11.40;99.90;;;;;;5013731;28;20430;-70
2021/04/10 09:58:16;;;;;;;3.78;2.90;;;11.40;99.90;;;;;;5031571;28;20056;-71
2021/04/10 10:00:44;;;;;;;5.45;2.90;;;11.40;99.90;;;;;;5031428;28;20030;-71
2021/04/10 10:03:14;;;;;;;6.75;3.22;;;11.50;99.90;;;;;;5031010;28;20576;-71
2021/04/10 10:05:44;;;;;;;5.72;3.03;;;11.50;99.90;;;;;;5013481;28;20057;-70
2021/04/10 10:08:12;;;;;;;4.63;2.80;;;11.50;99.90;;;;;;5031610;28;20014;-70
2021/04/10 10:10:40;;;;;;;6.35;2.85;;;11.40;99.90;;;;;;5013409;28;20411;-70
2021/04/10 10:13:08;;;;;;;3.35;2.70;;;11.40;99.90;;;;;;5033156;28;20116;-71
2021/04/10 10:15:34;;;;;;;3.53;2.85;;;11.60;99.90;;;;;;5032054;28;20491;-71
2021/04/10 10:18:16;;;;;;;4.28;2.90;;;11.60;99.90;;;;;;5038639;28;20033;-70
2021/04/10 10:20:58;;;;;;;3.85;2.65;;;11.60;99.90;;;;;;5016543;28;20018;-70
2021/04/10 10:23:28;;;;;;;4.57;2.80;;;11.70;99.90;;;;;;5041565;28;20034;-72
2021/04/10 10:26:02;;;;;;;5.22;2.78;;;11.80;99.90;;;;;;5040043;28;20025;-72
2021/04/10 10:28:27;;;;;;;3.50;2.78;;;11.90;99.90;;;;;;5049260;28;20018;-72
2021/04/10 10:30:53;;;;;;;4.00;2.70;;;12.00;99.90;;;;;;5035531;28;20032;-73
2021/04/10 10:33:20;;;;;;;4.55;2.90;;;12.10;99.90;;;;;;5049390;28;20032;-70
2021/04/10 10:35:50;;;;;;;5.07;3.00;;;12.30;99.90;;;;;;5042653;28;20384;-72
2021/04/10 10:38:17;;;;;;;3.65;2.72;;;12.30;99.90;;;;;;5048279;28;20044;-72
2021/04/10 10:40:47;;;;;;;5.90;2.58;;;12.70;99.90;;;;;;5029190;28;20060;-73
2021/04/10 10:43:13;;;;;;;4.38;2.75;;;13.10;99.90;;;;;;5045963;28;20025;-72
2021/04/10 10:45:50;;;;;;;3.95;3.10;;;13.00;99.90;;;;;;5051164;28;20490;-72
2021/04/10 10:48:19;;;;;;;2.70;2.42;;;13.00;99.90;;;;;;5044820;28;20033;-72
2021/04/10 10:50:46;;;;;;;5.75;2.80;;;12.80;99.90;;;;;;5045590;28;20017;-70
2021/04/10 10:53:25;;;;;;;3.78;2.50;;;12.50;99.90;;;;;;5041946;28;20083;-73
2021/04/10 10:55:54;;;;;;;3.20;2.50;;;12.30;99.90;;;;;;5021829;28;20112;-72
2021/04/10 10:58:21;;;;;;;3.90;3.17;;;12.20;99.90;;;;;;5041273;28;20034;-72
2021/04/10 11:00:46;;;;;;;5.38;2.95;;;12.00;99.90;;;;;;5027839;28;20021;-72
2021/04/10 11:03:19;;;;;;;3.63;2.70;;;11.80;99.90;;;;;;5029383;28;20037;-72
2021/04/10 11:05:45;;;;;;;3.95;2.55;;;11.80;99.90;;;;;;5027864;28;20013;-73
2021/04/10 11:08:11;;;;;;;4.03;2.35;;;11.70;99.90;;;;;;5043122;28;20534;-72
2021/04/10 11:10:40;;;;;;;2.70;2.50;;;11.60;99.90;;;;;;5049361;28;20037;-73
2021/04/10 11:13:06;;;;;;;6.75;2.90;;;11.70;99.90;;;;;;5020337;28;20037;-72
2021/04/10 11:15:31;;;;;;;4.75;2.75;;;11.70;99.90;;;;;;5035652;28;20071;-72
2021/04/10 11:17:57;;;;;;;6.72;2.70;;;11.80;99.90;;;;;;5042150;28;20030;-73
2021/04/10 11:20:35;;;;;;;4.15;2.60;;;11.90;99.90;;;;;;5047279;28;20086;-72
2021/04/10 11:23:06;;;;;;;5.63;2.53;;;12.00;99.90;;;;;;5031096;28;20435;-72
2021/04/10 11:25:50;;;;;;;3.20;2.55;;;12.30;99.90;;;;;;5038087;28;20045;-72
2021/04/10 11:28:29;;;;;;;5.38;2.70;;;11.70;99.90;;;;;;5028696;28;20195;-72
2021/04/10 11:31:06;;;;;;;3.70;2.50;;;11.60;99.90;;;;;;5020782;28;20485;-72
2021/04/10 11:33:32;;;;;;;;;;;11.40;99.90;;;;;;5033845;28;20157;-72
2021/04/10 11:35:57;;;;;;;3.92;2.80;;;11.40;99.90;;;;;;5034347;28;20290;-72
2021/04/10 11:38:23;;;;;;;2.85;2.45;;;11.40;99.90;;;;;;5033255;28;20033;-72
2021/04/10 11:40:48;;;;;;;3.90;2.40;;;11.60;99.90;;;;;;5032936;28;20025;-72
2021/04/10 11:43:14;;;;;;;4.72;2.42;;;11.70;99.90;;;;;;5034420;28;20431;-72
2021/04/10 11:45:42;;;;;;;4.07;2.20;;;11.60;99.90;;;;;;5045447;28;20022;-72
2021/04/10 11:48:10;;;;;;;2.75;2.30;;;11.60;99.90;;;;;;5033458;28;20089;-72
2021/04/10 11:50:49;;;;;;;3.58;2.47;;;11.60;99.90;;;;;;5033339;28;20033;-72
2021/04/10 11:53:28;;;;;;;4.65;2.75;;;11.60;99.90;;;;;;5029992;28;20044;-72
2021/04/10 11:55:58;;;;;;;4.25;2.30;;;11.60;99.90;;;;;;5033238;28;20033;-72
2021/04/10 11:58:32;;;;;;;4.22;2.40;;;11.50;99.90;;;;;;5015536;28;20037;-72
2021/04/10 12:01:10;;;;;;;4.47;2.53;;;11.60;99.90;;;;;;5033115;28;20392;-72
2021/04/10 12:03:53;;;;;;;4.60;2.78;;;11.60;99.90;;;;;;5015099;28;20048;-72
2021/04/10 12:06:36;;;;;;;4.57;2.70;;;11.60;99.90;;;;;;5033130;28;20376;-72
2021/04/10 12:09:10;;;;;;;4.38;2.70;;;11.70;99.90;;;;;;5033179;28;20101;-72
2021/04/10 12:11:42;;;;;;;6.78;2.70;;;11.90;99.90;;;;;;5021188;28;20032;-72
2021/04/10 12:14:10;;;;;;;4.13;3.00;;;12.10;99.90;;;;;;5033746;28;20032;-72
2021/04/10 12:16:37;;;;;;;3.35;2.63;;;12.20;99.90;;;;;;5033011;28;20017;-72
2021/04/10 12:19:04;;;;;;;4.30;2.70;;;12.30;99.90;;;;;;5032857;28;20056;-72
2021/04/10 12:21:31;;;;;;;5.78;3.08;;;12.40;99.90;;;;;;5014945;28;20018;-72
2021/04/10 12:23:56;;;;;;;6.22;3.22;;;12.70;99.90;;;;;;5032434;28;20083;-72
2021/04/10 12:26:22;;;;;;;3.67;2.90;;;12.90;99.90;;;;;;5015095;28;20029;-72
2021/04/10 12:28:47;;;;;;;5.80;3.40;;;12.80;99.90;;;;;;5032621;28;20026;-73
2021/04/10 12:31:13;;;;;;;6.55;3.28;;;13.10;99.90;;;;;;5032668;28;20039;-72
2021/04/10 12:33:40;;;;;;;5.40;3.08;;;13.30;99.90;;;;;;5014644;28;20479;-72
2021/04/10 12:36:06;;;;;;;4.70;2.95;;;13.20;99.90;;;;;;5032659;28;20021;-72
2021/04/10 12:38:32;;;;;;;5.43;3.40;;;13.20;99.90;;;;;;5032335;28;20484;-72
2021/04/10 12:40:58;;;;;;;6.55;3.83;;;13.20;99.90;;;;;;5032510;28;20031;-72
2021/04/10 12:43:24;;;;;;;3.55;2.75;;;13.40;99.90;;;;;;5016792;28;20446;-72
2021/04/10 12:45:50;;;;;;;4.28;2.80;;;13.50;99.90;;;;;;5025318;28;20076;-70
2021/04/10 12:48:15;;;;;;;3.40;3.10;;;13.40;99.90;;;;;;5032374;28;20021;-72
2021/04/10 12:50:41;;;;;;;4.22;3.00;;;13.20;99.90;;;;;;5014571;28;20018;-72
2021/04/10 12:53:07;;;;;;;3.50;3.00;;;13.30;99.90;;;;;;5031749;28;20035;-72
2021/04/10 12:55:33;;;;;;;4.72;3.40;;;13.20;99.90;;;;;;5032151;28;20036;-72
2021/04/10 12:57:58;;;;;;;5.05;3.20;;;13.20;99.90;;;;;;5014426;28;20048;-72
2021/04/10 13:00:24;;;;;;;4.25;3.38;;;13.00;99.90;;;;;;5031974;28;20032;-72
2021/04/10 13:02:49;;;;;;;4.10;2.92;;;12.90;99.90;;;;;;5031860;28;20076;-72